METAR Rapporter från flygplatser

 

ESTA - Ängelholm, Sweden
Distance from station: SSV 17km
Uppdaterad: 2020-08-07 17:20
Klart
Klart
 Vind från SV
Vind: SV 15 km/h
Temperatur: 28°C
Heat Index: 27°C
Daggpunkt: 13°C
Luftfuktighet: 40%
Barometer: 1023 hPa
Summering: Klart
Visibility: greater than 10 km
2020/08/07 15:20 ESTA 071520Z 23008KT CAVOK 28/13 Q1023
ESMT - Halmstad, Sweden
Distance from station: N 26km
Uppdaterad: 2020-08-07 17:20
Klart
Klart
 Vind från VSV
Vind: VSV 13 km/h
Temperatur: 28°C
Daggpunkt: 12°C
Luftfuktighet: 37%
Barometer: 1024 hPa
Clouds: Klart
Visibility: 10 km
2020/08/07 15:20 ESMT 071520Z AUTO 25007KT 9999 NCD 28/12 Q1024
 
ESTL - Ljungbyhed, Sweden
Distance from station: SSO 45km
Uppdaterad: 2020-08-07 17:20
Klart
Klart
 Vind från O
Vind: O 20 km/h
Temperatur: 29°C
Heat Index: 28°C
Daggpunkt: 14°C
Luftfuktighet: 40%
Barometer: 1024 hPa
Clouds: Klart
Visibility: 10 km
2020/08/07 15:20 ESTL 071520Z AUTO 10011KT 9999 NCD 29/14 Q1024
EKCH - Copenhagen/Kastrup, Denmark
Distance from station: S 92km
Uppdaterad: 2020-08-07 17:20
Klart
Klart
 Vind från S
Vind: S 17 km/h
Temperatur: 27°C
Daggpunkt: 12°C
Luftfuktighet: 39%
Barometer: 1024 hPa
Clouds: Klart
Visibility: 10 km
2020/08/07 15:20 EKCH 071520Z AUTO 17009KT 9999 NCD 27/12 Q1024 NOSIG
 
ESMK - Kristianstad/Everöd, Sweden
Distance from station: SO 93km
Uppdaterad: 2020-08-07 17:20
Klart
Klart
 Vind från SO
Vind: SO 17 km/h
Temperatur: 25°C
Daggpunkt: 12°C
Luftfuktighet: 44%
Barometer: 1025 hPa
Clouds: Klart
Visibility: 10 km
2020/08/07 15:20 ESMK 071520Z AUTO 13009KT 090V150 9999 NCD 25/12 Q1025
ESMS - Malmö/Sturup, Sweden
Distance from station: SSO 104km
Uppdaterad: 2020-08-07 17:20
Klart
Klart
 Vind från SSO
Vind: SSO 19 km/h
Temperatur: 27°C
Daggpunkt: 10°C
Luftfuktighet: 34%
Barometer: 1024 hPa
Summering: Klart
Visibility: greater than 10 km
2020/08/07 15:20 ESMS 071520Z 15010KT CAVOK 27/10 Q1024
 
EKRK - Copenhagen/Roskilde, Denmark
Distance from station: SSV 108km
Uppdaterad: 2020-08-07 17:20
Klart
Klart
 Vind från SO
Vind: SO 20 km/h
Temperatur: 26°C
Daggpunkt: 11°C
Luftfuktighet: 39%
Barometer: 1024 hPa
Clouds: Klart
Visibility: 10 km
2020/08/07 15:20 EKRK 071520Z AUTO 13011KT 9999 NCD 26/11 Q1024
ESMX - Växjö/Kronoberg, Sweden
Distance from station: ONO 124km
Uppdaterad: 2020-08-07 17:20
Klart
Klart
 Vind från S
Vind: S 13 km/h
Temperatur: 28°C
Heat Index: 28°C
Daggpunkt: 14°C
Luftfuktighet: 42%
Barometer: 1025 hPa
Clouds: Klart
Visibility: 10 km
2020/08/07 15:20 ESMX 071520Z AUTO 19007KT 9999 NCD 28/14 Q1025
 
EKAH - Tirstrup, Denmark
Distance from station: V 141km
Uppdaterad: 2020-08-07 17:20
Klart
Klart
 Vind från SO
Vind: SO 13 km/h
Temperatur: 30°C
Daggpunkt: 11°C
Luftfuktighet: 31%
Barometer: 1023 hPa
Clouds: Klart
Visibility: 10 km
2020/08/07 15:20 EKAH 071520Z AUTO 13007KT 090V170 9999NDV NCD 30/11 Q1023
ESGG - Göteborg/Landvetter, Sweden
Distance from station: NNV 142km
Uppdaterad: 2020-08-07 17:20
Klart
Klart
 Vind från SV
Vind: SV 17 km/h
Temperatur: 27°C
Daggpunkt: 11°C
Luftfuktighet: 37%
Barometer: 1024 hPa
Summering: Klart
Visibility: greater than 10 km
2020/08/07 15:20 ESGG 071520Z 22009KT CAVOK 27/11 Q1024
 
ESDF - Ronneby, Sweden
Distance from station: O 147km
Uppdaterad: 2020-08-07 17:20
Klart
Klart
 Vind från SSO
Vind: SSO 15 km/h
Temperatur: 25°C
Daggpunkt: 13°C
Luftfuktighet: 47%
Barometer: 1025 hPa
Summering: Klart
Visibility: greater than 10 km
2020/08/07 15:20 ESDF 071520Z 16008KT CAVOK 25/13 Q1025
ESGP - Göteborg/Säve, Sweden
Distance from station: NNV 161km
Uppdaterad: 2017-01-02 11:20
NOT Current
Klart
Klart
 Vind från calm
Vind: Vindstilla
Temperatur: -2°C
Daggpunkt: -4°C
Luftfuktighet: 86%
Barometer: 1012 hPa
Clouds: Klart
Visibility: 10 km
2017/01/02 10:20 ESGP 021020Z AUTO 00000KT 9999 NCD M02/M04 Q1012
 
ESGJ - Jönköping Airport, Sweden
Distance from station: NNO 164km
Uppdaterad: 2020-08-07 17:20
Klart
Klart
 Vind från SSO
Vind: SSO 11 km/h
Temperatur: 28°C
Daggpunkt: 9°C
Luftfuktighet: 30%
Barometer: 1025 hPa
Clouds: Klart
Visibility: 10 km
2020/08/07 15:20 ESGJ 071520Z AUTO 16006KT 9999 NCD 28/09 Q1025
EKAV - Avno, Denmark
Distance from station: SSV 168km
Uppdaterad: 2016-10-04 06:20
NOT Current
Klart
Klart
 
Barometer: 1039 hPa
Clouds: Klart
Visibility: 10 km
2016/10/04 04:20 EKAV 040420Z AUTO ///// 9999NDV NCD ///// Q1039
 
EKRN - Rönne, Denmark
Distance from station: SO 191km
Uppdaterad: 2020-08-07 17:20
Klart
Klart
 Vind från O
Vind: O 17 km/h
Temperatur: 27°C
Daggpunkt: 10°C
Luftfuktighet: 34%
Barometer: 1024 hPa
Summering: Klart
Visibility: greater than 10 km
2020/08/07 15:20 EKRN 071520Z 08009KT 040V100 CAVOK 27/10 Q1024
EKOD - Odense/Beldringe, Denmark
Distance from station: VSV 193km
Uppdaterad: 2020-08-07 16:50
Klart
Klart
 Vind från S
Vind: S 13 km/h
Temperatur: 30°C
Daggpunkt: 10°C
Luftfuktighet: 29%
Barometer: 1022 hPa
Summering: Klart
Visibility: greater than 10 km
2020/08/07 14:50 EKOD 071450Z 17007KT 100V260 CAVOK 30/10 Q1022
 
EKYT - AAlborg, Denmark
Distance from station: VNV 199km
Uppdaterad: 2020-08-07 17:20
Delvis molnigt
Delvis molnigt
 Vind från O
Vind: O 13 km/h
Temperatur: 27°C
Heat Index: 28°C
Daggpunkt: 17°C
Luftfuktighet: 54%
Barometer: 1022 hPa
Clouds: Delvis molnigt
Visibility: 10 km
Cloud details: Enstaka moln 2286 m
Delvis molnigt 7315 m
2020/08/07 15:20 EKYT 071520Z AUTO 08007KT 9999 FEW075/// SCT240/// 27/17 Q1022
EKSN - Sindal Airport, Denmark
Distance from station: NV 201km
Uppdaterad: 2020-08-07 14:50
NOT Current
Klart
Klart
 Vind från N
Vind: N 9 km/h
Temperatur: 27°C
Heat Index: 28°C
Daggpunkt: 17°C
Luftfuktighet: 54%
Barometer: 1023 hPa
Summering: Klart
Visibility: greater than 10 km
2020/08/07 12:50 EKSN 071250Z 35005KT 310V030 CAVOK 27/17 Q1023
 
ESMQ - Kalmar, Sweden
Distance from station: O 211km
Uppdaterad: 2020-08-07 17:20
Klart
Klart
 Vind från SSO
Vind: SSO 11 km/h
Temperatur: 25°C
Daggpunkt: 13°C
Luftfuktighet: 47%
Barometer: 1026 hPa
Clouds: Klart
Visibility: 10 km
2020/08/07 15:20 ESMQ 071520Z AUTO 15006KT 9999 R16///// R34/P1500N NCD 25/13 Q1026
ESGT - Trollhättan, Sweden
Distance from station: N 212km
Uppdaterad: 2020-08-07 17:20
Enstaka moln
Enstaka moln
 Vind från S
Vind: S 17 km/h
Temperatur: 28°C
Heat Index: 27°C
Daggpunkt: 13°C
Luftfuktighet: 40%
Barometer: 1023 hPa
Clouds: Enstaka moln
Visibility: 10 km
Cloud details: Enstaka moln 3353 m
2020/08/07 15:20 ESGT 071520Z AUTO 18009KT 140V220 9999 R15/P2000N R33///// FEW110/// 28/13 Q1023